sensor_id;sensor_type;location;lat;lon;timestamp;P1;durP1;ratioP1;P2;durP2;ratioP2
20669;SDS011;10494;50.868;4.180;2023-01-04T00:00:11;7.85;;;2.13;;
20669;SDS011;10494;50.868;4.180;2023-01-04T00:02:37;5.27;;;1.97;;
20669;SDS011;10494;50.868;4.180;2023-01-04T00:05:02;4.67;;;1.73;;
20669;SDS011;10494;50.868;4.180;2023-01-04T00:07:28;4.10;;;1.80;;
20669;SDS011;10494;50.868;4.180;2023-01-04T00:09:54;5.87;;;2.00;;
20669;SDS011;10494;50.868;4.180;2023-01-04T00:12:20;3.23;;;1.83;;
20669;SDS011;10494;50.868;4.180;2023-01-04T00:14:46;7.40;;;1.80;;
20669;SDS011;10494;50.868;4.180;2023-01-04T00:17:12;4.07;;;1.87;;
20669;SDS011;10494;50.868;4.180;2023-01-04T00:19:38;6.73;;;1.70;;
20669;SDS011;10494;50.868;4.180;2023-01-04T00:22:03;3.87;;;1.70;;
20669;SDS011;10494;50.868;4.180;2023-01-04T00:24:29;5.28;;;1.48;;
20669;SDS011;10494;50.868;4.180;2023-01-04T00:26:54;3.90;;;1.80;;
20669;SDS011;10494;50.868;4.180;2023-01-04T00:29:20;2.43;;;1.60;;
20669;SDS011;10494;50.868;4.180;2023-01-04T00:31:46;6.85;;;1.95;;
20669;SDS011;10494;50.868;4.180;2023-01-04T00:34:12;5.35;;;1.58;;
20669;SDS011;10494;50.868;4.180;2023-01-04T00:36:39;5.95;;;1.70;;
20669;SDS011;10494;50.868;4.180;2023-01-04T00:39:05;5.00;;;1.85;;
20669;SDS011;10494;50.868;4.180;2023-01-04T00:41:42;1.87;;;1.60;;
20669;SDS011;10494;50.868;4.180;2023-01-04T00:44:09;4.50;;;1.98;;
20669;SDS011;10494;50.868;4.180;2023-01-04T00:46:35;3.43;;;1.80;;
20669;SDS011;10494;50.868;4.180;2023-01-04T00:49:02;6.40;;;2.10;;
20669;SDS011;10494;50.868;4.180;2023-01-04T00:51:28;4.35;;;2.00;;
20669;SDS011;10494;50.868;4.180;2023-01-04T00:53:56;4.72;;;1.95;;
20669;SDS011;10494;50.868;4.180;2023-01-04T00:56:22;5.70;;;2.40;;
20669;SDS011;10494;50.868;4.180;2023-01-04T00:58:48;4.65;;;2.00;;
20669;SDS011;10494;50.868;4.180;2023-01-04T01:01:17;5.30;;;2.10;;
20669;SDS011;10494;50.868;4.180;2023-01-04T01:03:42;4.50;;;2.20;;
20669;SDS011;10494;50.868;4.180;2023-01-04T01:06:08;5.07;;;2.55;;
20669;SDS011;10494;50.868;4.180;2023-01-04T01:08:34;6.75;;;2.30;;
20669;SDS011;10494;50.868;4.180;2023-01-04T01:11:04;3.67;;;2.05;;
20669;SDS011;10494;50.868;4.180;2023-01-04T01:13:31;6.82;;;2.15;;
20669;SDS011;10494;50.868;4.180;2023-01-04T01:16:07;3.65;;;2.30;;
20669;SDS011;10494;50.868;4.180;2023-01-04T01:18:35;3.97;;;2.30;;
20669;SDS011;10494;50.868;4.180;2023-01-04T01:21:22;4.28;;;2.63;;
20669;SDS011;10494;50.868;4.180;2023-01-04T01:23:50;3.60;;;2.33;;
20669;SDS011;10494;50.868;4.180;2023-01-04T01:26:19;4.57;;;2.40;;
20669;SDS011;10494;50.868;4.180;2023-01-04T01:28:45;5.05;;;2.40;;
20669;SDS011;10494;50.868;4.180;2023-01-04T01:31:19;6.93;;;2.60;;
20669;SDS011;10494;50.868;4.180;2023-01-04T01:33:47;4.10;;;2.42;;
20669;SDS011;10494;50.868;4.180;2023-01-04T01:36:14;8.90;;;3.10;;
20669;SDS011;10494;50.868;4.180;2023-01-04T01:38:42;9.70;;;2.88;;
20669;SDS011;10494;50.868;4.180;2023-01-04T01:41:13;2.85;;;2.10;;
20669;SDS011;10494;50.868;4.180;2023-01-04T01:43:52;8.23;;;2.88;;
20669;SDS011;10494;50.868;4.180;2023-01-04T01:46:21;8.07;;;2.67;;
20669;SDS011;10494;50.868;4.180;2023-01-04T01:48:51;4.70;;;2.42;;
20669;SDS011;10494;50.868;4.180;2023-01-04T01:51:20;6.45;;;2.80;;
20669;SDS011;10494;50.868;4.180;2023-01-04T01:53:47;8.27;;;2.95;;
20669;SDS011;10494;50.868;4.180;2023-01-04T01:56:16;5.00;;;2.35;;
20669;SDS011;10494;50.868;4.180;2023-01-04T01:58:44;9.85;;;3.08;;
20669;SDS011;10494;50.868;4.180;2023-01-04T02:01:14;8.13;;;3.13;;
20669;SDS011;10494;50.868;4.180;2023-01-04T02:03:41;8.30;;;2.97;;
20669;SDS011;10494;50.868;4.180;2023-01-04T02:06:09;7.25;;;2.67;;
20669;SDS011;10494;50.868;4.180;2023-01-04T02:08:37;11.00;;;3.50;;
20669;SDS011;10494;50.868;4.180;2023-01-04T02:11:05;9.68;;;2.75;;
20669;SDS011;10494;50.868;4.180;2023-01-04T02:13:31;7.22;;;3.05;;
20669;SDS011;10494;50.868;4.180;2023-01-04T02:27:28;5.32;;;2.28;;
20669;SDS011;10494;50.868;4.180;2023-01-04T02:35:42;6.32;;;2.70;;
20669;SDS011;10494;50.868;4.180;2023-01-04T02:41:49;4.70;;;2.42;;
20669;SDS011;10494;50.868;4.180;2023-01-04T02:44:16;5.40;;;2.95;;
20669;SDS011;10494;50.868;4.180;2023-01-04T02:47:04;8.57;;;2.83;;
20669;SDS011;10494;50.868;4.180;2023-01-04T02:49:32;11.35;;;3.38;;
20669;SDS011;10494;50.868;4.180;2023-01-04T02:52:16;7.63;;;2.63;;
20669;SDS011;10494;50.868;4.180;2023-01-04T02:54:43;5.28;;;2.80;;
20669;SDS011;10494;50.868;4.180;2023-01-04T03:03:01;5.55;;;2.20;;
20669;SDS011;10494;50.868;4.180;2023-01-04T03:06:06;9.80;;;3.28;;
20669;SDS011;10494;50.868;4.180;2023-01-04T03:09:04;6.63;;;2.88;;
20669;SDS011;10494;50.868;4.180;2023-01-04T03:11:50;4.38;;;2.33;;
20669;SDS011;10494;50.868;4.180;2023-01-04T03:14:52;9.45;;;2.30;;
20669;SDS011;10494;50.868;4.180;2023-01-04T03:17:24;6.93;;;2.50;;
20669;SDS011;10494;50.868;4.180;2023-01-04T03:19:52;3.85;;;1.90;;
20669;SDS011;10494;50.868;4.180;2023-01-04T03:22:41;6.32;;;2.15;;
20669;SDS011;10494;50.868;4.180;2023-01-04T03:25:39;7.85;;;2.38;;
20669;SDS011;10494;50.868;4.180;2023-01-04T03:28:27;4.45;;;2.53;;
20669;SDS011;10494;50.868;4.180;2023-01-04T03:31:18;5.97;;;2.03;;
20669;SDS011;10494;50.868;4.180;2023-01-04T03:34:08;7.68;;;2.50;;
20669;SDS011;10494;50.868;4.180;2023-01-04T03:37:03;5.10;;;2.13;;
20669;SDS011;10494;50.868;4.180;2023-01-04T03:39:38;8.80;;;2.53;;
20669;SDS011;10494;50.868;4.180;2023-01-04T03:42:55;6.82;;;2.20;;
20669;SDS011;10494;50.868;4.180;2023-01-04T03:45:49;6.07;;;2.20;;
20669;SDS011;10494;50.868;4.180;2023-01-04T03:48:38;4.50;;;2.20;;
20669;SDS011;10494;50.868;4.180;2023-01-04T03:51:32;7.97;;;2.53;;
20669;SDS011;10494;50.868;4.180;2023-01-04T03:54:20;9.27;;;2.10;;
20669;SDS011;10494;50.868;4.180;2023-01-04T03:56:53;5.68;;;2.40;;
20669;SDS011;10494;50.868;4.180;2023-01-04T03:59:20;4.78;;;1.90;;
20669;SDS011;10494;50.868;4.180;2023-01-04T04:01:47;9.43;;;2.58;;
20669;SDS011;10494;50.868;4.180;2023-01-04T04:04:13;7.25;;;2.42;;
20669;SDS011;10494;50.868;4.180;2023-01-04T04:06:57;6.28;;;2.35;;
20669;SDS011;10494;50.868;4.180;2023-01-04T04:09:41;9.43;;;2.10;;
20669;SDS011;10494;50.868;4.180;2023-01-04T04:12:07;5.28;;;1.98;;
20669;SDS011;10494;50.868;4.180;2023-01-04T04:14:33;5.38;;;1.67;;
20669;SDS011;10494;50.868;4.180;2023-01-04T04:16:58;5.30;;;2.25;;
20669;SDS011;10494;50.868;4.180;2023-01-04T04:19:24;5.25;;;1.77;;
20669;SDS011;10494;50.868;4.180;2023-01-04T04:21:49;3.03;;;1.67;;
20669;SDS011;10494;50.868;4.180;2023-01-04T04:24:16;7.97;;;2.15;;
20669;SDS011;10494;50.868;4.180;2023-01-04T04:26:43;8.52;;;2.20;;
20669;SDS011;10494;50.868;4.180;2023-01-04T04:29:09;3.28;;;1.70;;
20669;SDS011;10494;50.868;4.180;2023-01-04T04:31:35;7.25;;;1.90;;
20669;SDS011;10494;50.868;4.180;2023-01-04T04:34:00;2.45;;;1.60;;
20669;SDS011;10494;50.868;4.180;2023-01-04T04:36:26;4.78;;;1.65;;
20669;SDS011;10494;50.868;4.180;2023-01-04T04:38:51;2.45;;;1.38;;
20669;SDS011;10494;50.868;4.180;2023-01-04T04:41:17;2.97;;;1.23;;
20669;SDS011;10494;50.868;4.180;2023-01-04T04:44:01;5.85;;;1.52;;
20669;SDS011;10494;50.868;4.180;2023-01-04T04:46:27;3.92;;;1.50;;
20669;SDS011;10494;50.868;4.180;2023-01-04T04:48:52;2.28;;;1.20;;
20669;SDS011;10494;50.868;4.180;2023-01-04T04:51:18;5.95;;;1.45;;
20669;SDS011;10494;50.868;4.180;2023-01-04T04:53:44;4.32;;;1.58;;
20669;SDS011;10494;50.868;4.180;2023-01-04T04:56:09;5.97;;;1.40;;
20669;SDS011;10494;50.868;4.180;2023-01-04T04:58:35;3.38;;;1.23;;
20669;SDS011;10494;50.868;4.180;2023-01-04T05:01:02;2.75;;;1.38;;
20669;SDS011;10494;50.868;4.180;2023-01-04T05:03:28;4.15;;;1.50;;
20669;SDS011;10494;50.868;4.180;2023-01-04T05:05:54;4.40;;;1.33;;
20669;SDS011;10494;50.868;4.180;2023-01-04T05:08:19;1.73;;;1.38;;
20669;SDS011;10494;50.868;4.180;2023-01-04T05:10:45;3.15;;;1.40;;
20669;SDS011;10494;50.868;4.180;2023-01-04T05:13:11;3.65;;;1.60;;
20669;SDS011;10494;50.868;4.180;2023-01-04T05:15:42;5.32;;;1.48;;
20669;SDS011;10494;50.868;4.180;2023-01-04T05:18:09;3.35;;;1.92;;
20669;SDS011;10494;50.868;4.180;2023-01-04T05:20:36;5.13;;;1.80;;
20669;SDS011;10494;50.868;4.180;2023-01-04T05:23:02;4.88;;;1.88;;
20669;SDS011;10494;50.868;4.180;2023-01-04T05:25:28;6.75;;;1.40;;
20669;SDS011;10494;50.868;4.180;2023-01-04T05:27:54;7.78;;;1.70;;
20669;SDS011;10494;50.868;4.180;2023-01-04T05:30:20;5.53;;;1.40;;
20669;SDS011;10494;50.868;4.180;2023-01-04T05:33:04;2.75;;;1.40;;
20669;SDS011;10494;50.868;4.180;2023-01-04T05:35:31;4.10;;;1.55;;
20669;SDS011;10494;50.868;4.180;2023-01-04T05:37:57;5.57;;;1.48;;
20669;SDS011;10494;50.868;4.180;2023-01-04T05:40:22;8.50;;;1.60;;
20669;SDS011;10494;50.868;4.180;2023-01-04T05:42:48;2.70;;;1.40;;
20669;SDS011;10494;50.868;4.180;2023-01-04T05:45:14;3.95;;;1.02;;
20669;SDS011;10494;50.868;4.180;2023-01-04T05:47:40;1.83;;;1.10;;
20669;SDS011;10494;50.868;4.180;2023-01-04T05:50:06;2.35;;;1.40;;
20669;SDS011;10494;50.868;4.180;2023-01-04T05:52:33;2.35;;;1.15;;
20669;SDS011;10494;50.868;4.180;2023-01-04T05:54:58;1.27;;;1.10;;
20669;SDS011;10494;50.868;4.180;2023-01-04T05:57:24;2.47;;;1.00;;
20669;SDS011;10494;50.868;4.180;2023-01-04T05:59:50;3.15;;;1.20;;
20669;SDS011;10494;50.868;4.180;2023-01-04T06:02:17;3.65;;;1.00;;
20669;SDS011;10494;50.868;4.180;2023-01-04T06:04:45;4.25;;;1.13;;
20669;SDS011;10494;50.868;4.180;2023-01-04T06:07:11;4.80;;;1.25;;
20669;SDS011;10494;50.868;4.180;2023-01-04T06:09:37;3.10;;;1.20;;
20669;SDS011;10494;50.868;4.180;2023-01-04T06:12:03;1.15;;;0.80;;
20669;SDS011;10494;50.868;4.180;2023-01-04T06:14:28;3.10;;;0.65;;
20669;SDS011;10494;50.868;4.180;2023-01-04T06:16:54;3.28;;;0.80;;
20669;SDS011;10494;50.868;4.180;2023-01-04T06:19:20;5.15;;;1.48;;
20669;SDS011;10494;50.868;4.180;2023-01-04T06:21:45;5.15;;;1.55;;
20669;SDS011;10494;50.868;4.180;2023-01-04T06:24:11;1.75;;;1.10;;
20669;SDS011;10494;50.868;4.180;2023-01-04T06:26:36;2.17;;;1.10;;
20669;SDS011;10494;50.868;4.180;2023-01-04T06:29:02;3.15;;;1.05;;
20669;SDS011;10494;50.868;4.180;2023-01-04T06:31:28;4.07;;;1.02;;
20669;SDS011;10494;50.868;4.180;2023-01-04T06:33:54;4.13;;;1.17;;
20669;SDS011;10494;50.868;4.180;2023-01-04T06:36:20;4.40;;;1.30;;
20669;SDS011;10494;50.868;4.180;2023-01-04T06:38:46;3.45;;;1.17;;
20669;SDS011;10494;50.868;4.180;2023-01-04T06:41:15;3.85;;;1.02;;
20669;SDS011;10494;50.868;4.180;2023-01-04T06:43:41;5.65;;;1.33;;
20669;SDS011;10494;50.868;4.180;2023-01-04T06:46:06;3.42;;;1.10;;
20669;SDS011;10494;50.868;4.180;2023-01-04T06:48:32;2.30;;;0.80;;
20669;SDS011;10494;50.868;4.180;2023-01-04T06:50:57;1.65;;;0.90;;
20669;SDS011;10494;50.868;4.180;2023-01-04T06:53:23;5.43;;;1.15;;
20669;SDS011;10494;50.868;4.180;2023-01-04T06:55:49;3.22;;;1.00;;
20669;SDS011;10494;50.868;4.180;2023-01-04T06:58:15;2.25;;;1.00;;
20669;SDS011;10494;50.868;4.180;2023-01-04T07:00:40;3.35;;;1.17;;
20669;SDS011;10494;50.868;4.180;2023-01-04T07:03:06;2.28;;;0.95;;
20669;SDS011;10494;50.868;4.180;2023-01-04T07:05:32;5.53;;;1.10;;
20669;SDS011;10494;50.868;4.180;2023-01-04T07:08:01;7.18;;;1.27;;
20669;SDS011;10494;50.868;4.180;2023-01-04T07:10:27;2.78;;;1.00;;
20669;SDS011;10494;50.868;4.180;2023-01-04T07:12:53;4.38;;;1.00;;
20669;SDS011;10494;50.868;4.180;2023-01-04T07:15:19;5.10;;;1.17;;
20669;SDS011;10494;50.868;4.180;2023-01-04T07:17:48;3.08;;;1.00;;
20669;SDS011;10494;50.868;4.180;2023-01-04T07:20:15;3.08;;;1.13;;
20669;SDS011;10494;50.868;4.180;2023-01-04T07:22:41;4.95;;;1.20;;
20669;SDS011;10494;50.868;4.180;2023-01-04T07:25:07;2.17;;;1.13;;
20669;SDS011;10494;50.868;4.180;2023-01-04T07:27:33;4.70;;;1.17;;
20669;SDS011;10494;50.868;4.180;2023-01-04T07:29:59;3.28;;;1.02;;
20669;SDS011;10494;50.868;4.180;2023-01-04T07:32:25;2.85;;;0.90;;
20669;SDS011;10494;50.868;4.180;2023-01-04T07:34:50;3.50;;;1.00;;
20669;SDS011;10494;50.868;4.180;2023-01-04T07:37:16;2.55;;;1.10;;
20669;SDS011;10494;50.868;4.180;2023-01-04T07:39:42;4.53;;;1.13;;
20669;SDS011;10494;50.868;4.180;2023-01-04T07:42:08;6.95;;;1.13;;
20669;SDS011;10494;50.868;4.180;2023-01-04T07:44:34;5.40;;;1.10;;
20669;SDS011;10494;50.868;4.180;2023-01-04T07:47:00;2.95;;;1.10;;
20669;SDS011;10494;50.868;4.180;2023-01-04T07:49:26;2.00;;;1.00;;
20669;SDS011;10494;50.868;4.180;2023-01-04T07:51:51;2.80;;;1.13;;
20669;SDS011;10494;50.868;4.180;2023-01-04T07:54:17;2.38;;;0.75;;
20669;SDS011;10494;50.868;4.180;2023-01-04T07:56:43;2.80;;;1.25;;
20669;SDS011;10494;50.868;4.180;2023-01-04T07:59:10;4.32;;;1.10;;
20669;SDS011;10494;50.868;4.180;2023-01-04T08:01:37;2.78;;;0.90;;
20669;SDS011;10494;50.868;4.180;2023-01-04T08:04:03;4.13;;;1.08;;
20669;SDS011;10494;50.868;4.180;2023-01-04T08:06:30;2.17;;;1.27;;
20669;SDS011;10494;50.868;4.180;2023-01-04T08:08:59;3.53;;;1.33;;
20669;SDS011;10494;50.868;4.180;2023-01-04T08:11:25;2.45;;;1.17;;
20669;SDS011;10494;50.868;4.180;2023-01-04T08:13:50;6.43;;;1.30;;
20669;SDS011;10494;50.868;4.180;2023-01-04T08:16:17;5.50;;;1.50;;
20669;SDS011;10494;50.868;4.180;2023-01-04T08:18:47;3.70;;;1.23;;
20669;SDS011;10494;50.868;4.180;2023-01-04T08:21:16;2.90;;;0.80;;
20669;SDS011;10494;50.868;4.180;2023-01-04T08:23:42;4.95;;;1.48;;
20669;SDS011;10494;50.868;4.180;2023-01-04T08:26:09;4.40;;;1.25;;
20669;SDS011;10494;50.868;4.180;2023-01-04T08:28:36;3.33;;;1.30;;
20669;SDS011;10494;50.868;4.180;2023-01-04T08:31:03;2.00;;;1.20;;
20669;SDS011;10494;50.868;4.180;2023-01-04T08:33:30;4.53;;;1.15;;
20669;SDS011;10494;50.868;4.180;2023-01-04T08:36:06;3.65;;;1.20;;
20669;SDS011;10494;50.868;4.180;2023-01-04T08:38:37;3.90;;;1.00;;
20669;SDS011;10494;50.868;4.180;2023-01-04T08:41:03;5.47;;;1.20;;
20669;SDS011;10494;50.868;4.180;2023-01-04T08:43:29;5.15;;;1.42;;
20669;SDS011;10494;50.868;4.180;2023-01-04T08:45:55;7.07;;;1.45;;
20669;SDS011;10494;50.868;4.180;2023-01-04T08:48:21;3.67;;;1.17;;
20669;SDS011;10494;50.868;4.180;2023-01-04T08:50:46;3.70;;;1.40;;
20669;SDS011;10494;50.868;4.180;2023-01-04T08:53:12;2.00;;;1.20;;
20669;SDS011;10494;50.868;4.180;2023-01-04T08:55:38;6.57;;;1.40;;
20669;SDS011;10494;50.868;4.180;2023-01-04T08:58:03;2.78;;;1.05;;
20669;SDS011;10494;50.868;4.180;2023-01-04T09:00:31;5.05;;;1.40;;
20669;SDS011;10494;50.868;4.180;2023-01-04T09:02:57;4.47;;;1.13;;
20669;SDS011;10494;50.868;4.180;2023-01-04T09:05:22;2.50;;;1.13;;
20669;SDS011;10494;50.868;4.180;2023-01-04T09:07:49;4.07;;;0.95;;
20669;SDS011;10494;50.868;4.180;2023-01-04T09:10:15;5.07;;;1.67;;
20669;SDS011;10494;50.868;4.180;2023-01-04T09:12:41;3.78;;;1.25;;
20669;SDS011;10494;50.868;4.180;2023-01-04T09:15:07;2.72;;;1.15;;
20669;SDS011;10494;50.868;4.180;2023-01-04T09:17:33;4.47;;;1.50;;
20669;SDS011;10494;50.868;4.180;2023-01-04T09:19:58;2.60;;;1.20;;
20669;SDS011;10494;50.868;4.180;2023-01-04T09:22:24;5.10;;;1.35;;
20669;SDS011;10494;50.868;4.180;2023-01-04T09:24:49;6.88;;;1.70;;
20669;SDS011;10494;50.868;4.180;2023-01-04T09:27:15;3.30;;;1.00;;
20669;SDS011;10494;50.868;4.180;2023-01-04T09:29:40;2.42;;;0.90;;
20669;SDS011;10494;50.868;4.180;2023-01-04T09:32:06;5.07;;;1.20;;
20669;SDS011;10494;50.868;4.180;2023-01-04T09:34:32;5.50;;;1.00;;
20669;SDS011;10494;50.868;4.180;2023-01-04T09:36:57;3.10;;;1.05;;
20669;SDS011;10494;50.868;4.180;2023-01-04T09:39:23;2.78;;;1.23;;
20669;SDS011;10494;50.868;4.180;2023-01-04T09:41:57;3.75;;;1.00;;
20669;SDS011;10494;50.868;4.180;2023-01-04T09:44:42;3.80;;;1.25;;
20669;SDS011;10494;50.868;4.180;2023-01-04T09:47:20;3.38;;;1.10;;
20669;SDS011;10494;50.868;4.180;2023-01-04T09:49:56;3.88;;;1.05;;
20669;SDS011;10494;50.868;4.180;2023-01-04T09:52:50;5.18;;;1.17;;
20669;SDS011;10494;50.868;4.180;2023-01-04T09:55:37;3.47;;;0.95;;
20669;SDS011;10494;50.868;4.180;2023-01-04T09:58:12;3.03;;;1.10;;
20669;SDS011;10494;50.868;4.180;2023-01-04T10:00:50;5.65;;;1.10;;
20669;SDS011;10494;50.868;4.180;2023-01-04T10:03:27;3.45;;;1.35;;
20669;SDS011;10494;50.868;4.180;2023-01-04T10:05:55;5.78;;;1.30;;
20669;SDS011;10494;50.868;4.180;2023-01-04T10:08:22;4.13;;;1.02;;
20669;SDS011;10494;50.868;4.180;2023-01-04T10:11:01;3.05;;;1.17;;
20669;SDS011;10494;50.868;4.180;2023-01-04T10:16:55;3.97;;;1.30;;
20669;SDS011;10494;50.868;4.180;2023-01-04T10:22:29;9.60;;;1.90;;
20669;SDS011;10494;50.868;4.180;2023-01-04T10:30:23;1.90;;;1.08;;
20669;SDS011;10494;50.868;4.180;2023-01-04T10:33:11;6.65;;;1.42;;
20669;SDS011;10494;50.868;4.180;2023-01-04T10:35:37;5.53;;;1.40;;
20669;SDS011;10494;50.868;4.180;2023-01-04T10:38:09;4.95;;;1.38;;
20669;SDS011;10494;50.868;4.180;2023-01-04T10:41:06;3.78;;;1.88;;
20669;SDS011;10494;50.868;4.180;2023-01-04T10:43:59;4.80;;;1.38;;
20669;SDS011;10494;50.868;4.180;2023-01-04T10:46:32;1.52;;;1.08;;
20669;SDS011;10494;50.868;4.180;2023-01-04T10:49:23;7.57;;;1.35;;
20669;SDS011;10494;50.868;4.180;2023-01-04T10:52:10;5.78;;;1.63;;
20669;SDS011;10494;50.868;4.180;2023-01-04T10:57:30;6.43;;;1.20;;
20669;SDS011;10494;50.868;4.180;2023-01-04T11:00:02;4.38;;;1.20;;
20669;SDS011;10494;50.868;4.180;2023-01-04T11:02:38;5.30;;;1.15;;
20669;SDS011;10494;50.868;4.180;2023-01-04T11:05:16;3.67;;;1.30;;
20669;SDS011;10494;50.868;4.180;2023-01-04T11:08:31;4.05;;;1.40;;
20669;SDS011;10494;50.868;4.180;2023-01-04T11:13:34;2.03;;;1.20;;
20669;SDS011;10494;50.868;4.180;2023-01-04T11:16:00;4.00;;;1.30;;
20669;SDS011;10494;50.868;4.180;2023-01-04T11:18:29;6.00;;;1.55;;
20669;SDS011;10494;50.868;4.180;2023-01-04T11:20:57;6.47;;;1.00;;
20669;SDS011;10494;50.868;4.180;2023-01-04T11:23:23;6.18;;;1.73;;
20669;SDS011;10494;50.868;4.180;2023-01-04T11:25:56;3.67;;;1.20;;
20669;SDS011;10494;50.868;4.180;2023-01-04T11:28:36;2.63;;;1.08;;
20669;SDS011;10494;50.868;4.180;2023-01-04T11:36:38;3.83;;;1.38;;
20669;SDS011;10494;50.868;4.180;2023-01-04T11:39:19;1.65;;;1.15;;
20669;SDS011;10494;50.868;4.180;2023-01-04T11:42:00;3.25;;;1.02;;
20669;SDS011;10494;50.868;4.180;2023-01-04T11:44:29;3.53;;;1.42;;
20669;SDS011;10494;50.868;4.180;2023-01-04T11:49:46;1.60;;;1.20;;
20669;SDS011;10494;50.868;4.180;2023-01-04T11:55:14;2.70;;;1.23;;
20669;SDS011;10494;50.868;4.180;2023-01-04T11:57:40;2.63;;;1.23;;
20669;SDS011;10494;50.868;4.180;2023-01-04T12:00:08;2.83;;;1.30;;
20669;SDS011;10494;50.868;4.180;2023-01-04T12:02:37;2.45;;;1.20;;
20669;SDS011;10494;50.868;4.180;2023-01-04T12:05:08;2.90;;;1.17;;
20669;SDS011;10494;50.868;4.180;2023-01-04T12:07:42;2.85;;;1.38;;
20669;SDS011;10494;50.868;4.180;2023-01-04T12:10:26;2.58;;;1.02;;
20669;SDS011;10494;50.868;4.180;2023-01-04T12:12:52;4.72;;;1.13;;
20669;SDS011;10494;50.868;4.180;2023-01-04T12:15:22;2.42;;;1.02;;
20669;SDS011;10494;50.868;4.180;2023-01-04T12:18:15;1.98;;;1.05;;
20669;SDS011;10494;50.868;4.180;2023-01-04T12:20:46;1.33;;;1.00;;
20669;SDS011;10494;50.868;4.180;2023-01-04T12:23:12;4.20;;;1.17;;
20669;SDS011;10494;50.868;4.180;2023-01-04T12:25:39;2.28;;;0.90;;
20669;SDS011;10494;50.868;4.180;2023-01-04T12:33:42;3.65;;;0.90;;
20669;SDS011;10494;50.868;4.180;2023-01-04T12:44:34;5.65;;;1.20;;
20669;SDS011;10494;50.868;4.180;2023-01-04T12:47:00;4.20;;;1.38;;
20669;SDS011;10494;50.868;4.180;2023-01-04T12:57:37;4.00;;;1.38;;
20669;SDS011;10494;50.868;4.180;2023-01-04T13:00:07;4.13;;;1.33;;
20669;SDS011;10494;50.868;4.180;2023-01-04T13:02:36;0.90;;;0.90;;
20669;SDS011;10494;50.868;4.180;2023-01-04T13:10:32;2.38;;;1.23;;
20669;SDS011;10494;50.868;4.180;2023-01-04T13:13:11;2.17;;;1.30;;
20669;SDS011;10494;50.868;4.180;2023-01-04T13:18:42;3.88;;;1.77;;
20669;SDS011;10494;50.868;4.180;2023-01-04T13:21:12;1.48;;;1.30;;
20669;SDS011;10494;50.868;4.180;2023-01-04T13:23:54;2.83;;;1.60;;
20669;SDS011;10494;50.868;4.180;2023-01-04T13:26:26;3.38;;;1.77;;
20669;SDS011;10494;50.868;4.180;2023-01-04T13:29:20;3.22;;;1.88;;
20669;SDS011;10494;50.868;4.180;2023-01-04T13:31:56;4.00;;;1.77;;
20669;SDS011;10494;50.868;4.180;2023-01-04T13:34:38;4.03;;;1.90;;
20669;SDS011;10494;50.868;4.180;2023-01-04T13:39:38;3.13;;;1.98;;
20669;SDS011;10494;50.868;4.180;2023-01-04T13:47:55;6.68;;;1.80;;
20669;SDS011;10494;50.868;4.180;2023-01-04T13:53:00;2.53;;;1.50;;
20669;SDS011;10494;50.868;4.180;2023-01-04T13:55:28;4.13;;;1.83;;
20669;SDS011;10494;50.868;4.180;2023-01-04T13:58:05;3.63;;;1.70;;
20669;SDS011;10494;50.868;4.180;2023-01-04T14:00:51;6.85;;;1.77;;
20669;SDS011;10494;50.868;4.180;2023-01-04T14:05:44;4.78;;;1.90;;
20669;SDS011;10494;50.868;4.180;2023-01-04T14:08:16;5.72;;;1.90;;
20669;SDS011;10494;50.868;4.180;2023-01-04T14:11:00;4.70;;;1.80;;
20669;SDS011;10494;50.868;4.180;2023-01-04T14:13:27;5.90;;;2.10;;
20669;SDS011;10494;50.868;4.180;2023-01-04T14:16:12;4.15;;;1.60;;
20669;SDS011;10494;50.868;4.180;2023-01-04T14:18:39;5.28;;;2.00;;
20669;SDS011;10494;50.868;4.180;2023-01-04T14:21:13;6.95;;;1.88;;
20669;SDS011;10494;50.868;4.180;2023-01-04T14:23:40;3.53;;;1.88;;
20669;SDS011;10494;50.868;4.180;2023-01-04T14:26:05;3.78;;;1.65;;
20669;SDS011;10494;50.868;4.180;2023-01-04T14:28:35;2.80;;;1.30;;
20669;SDS011;10494;50.868;4.180;2023-01-04T14:38:40;1.42;;;1.33;;
20669;SDS011;10494;50.868;4.180;2023-01-04T14:41:14;2.35;;;1.48;;
20669;SDS011;10494;50.868;4.180;2023-01-04T14:43:43;1.98;;;1.33;;
20669;SDS011;10494;50.868;4.180;2023-01-04T14:46:10;3.08;;;1.85;;
20669;SDS011;10494;50.868;4.180;2023-01-04T14:48:36;4.63;;;2.42;;
20669;SDS011;10494;50.868;4.180;2023-01-04T14:51:02;5.95;;;2.20;;
20669;SDS011;10494;50.868;4.180;2023-01-04T14:53:29;6.25;;;2.28;;
20669;SDS011;10494;50.868;4.180;2023-01-04T14:55:54;3.80;;;1.67;;
20669;SDS011;10494;50.868;4.180;2023-01-04T14:58:20;6.55;;;2.30;;
20669;SDS011;10494;50.868;4.180;2023-01-04T15:00:46;5.05;;;1.77;;
20669;SDS011;10494;50.868;4.180;2023-01-04T15:03:12;5.88;;;1.30;;
20669;SDS011;10494;50.868;4.180;2023-01-04T15:05:37;6.20;;;1.30;;
20669;SDS011;10494;50.868;4.180;2023-01-04T15:08:05;3.20;;;1.42;;
20669;SDS011;10494;50.868;4.180;2023-01-04T15:10:30;5.18;;;2.05;;
20669;SDS011;10494;50.868;4.180;2023-01-04T15:12:56;6.78;;;1.48;;
20669;SDS011;10494;50.868;4.180;2023-01-04T15:15:24;7.93;;;1.80;;
20669;SDS011;10494;50.868;4.180;2023-01-04T15:17:50;10.90;;;2.05;;
20669;SDS011;10494;50.868;4.180;2023-01-04T15:20:16;10.15;;;2.30;;
20669;SDS011;10494;50.868;4.180;2023-01-04T15:22:41;19.33;;;2.75;;
20669;SDS011;10494;50.868;4.180;2023-01-04T15:25:08;12.75;;;2.50;;
20669;SDS011;10494;50.868;4.180;2023-01-04T15:27:34;13.88;;;2.90;;
20669;SDS011;10494;50.868;4.180;2023-01-04T15:29:59;18.80;;;3.45;;
20669;SDS011;10494;50.868;4.180;2023-01-04T15:32:25;22.05;;;3.28;;
20669;SDS011;10494;50.868;4.180;2023-01-04T15:34:50;20.73;;;3.70;;
20669;SDS011;10494;50.868;4.180;2023-01-04T15:37:16;17.58;;;3.63;;
20669;SDS011;10494;50.868;4.180;2023-01-04T15:39:44;12.90;;;3.25;;
20669;SDS011;10494;50.868;4.180;2023-01-04T15:42:10;25.27;;;4.30;;
20669;SDS011;10494;50.868;4.180;2023-01-04T15:44:55;25.48;;;4.18;;
20669;SDS011;10494;50.868;4.180;2023-01-04T15:47:21;21.67;;;3.95;;
20669;SDS011;10494;50.868;4.180;2023-01-04T15:49:46;22.45;;;3.53;;
20669;SDS011;10494;50.868;4.180;2023-01-04T15:52:13;29.35;;;4.50;;
20669;SDS011;10494;50.868;4.180;2023-01-04T15:54:39;26.45;;;4.78;;
20669;SDS011;10494;50.868;4.180;2023-01-04T15:57:05;33.28;;;5.80;;
20669;SDS011;10494;50.868;4.180;2023-01-04T15:59:30;29.70;;;5.10;;
20669;SDS011;10494;50.868;4.180;2023-01-04T16:01:56;31.10;;;4.35;;
20669;SDS011;10494;50.868;4.180;2023-01-04T16:04:22;31.23;;;5.35;;
20669;SDS011;10494;50.868;4.180;2023-01-04T16:06:47;35.08;;;5.75;;
20669;SDS011;10494;50.868;4.180;2023-01-04T16:09:13;34.15;;;5.57;;
20669;SDS011;10494;50.868;4.180;2023-01-04T16:11:39;29.33;;;4.65;;
20669;SDS011;10494;50.868;4.180;2023-01-04T16:14:24;27.00;;;4.82;;
20669;SDS011;10494;50.868;4.180;2023-01-04T16:16:50;29.95;;;5.32;;
20669;SDS011;10494;50.868;4.180;2023-01-04T16:19:16;27.27;;;5.38;;
20669;SDS011;10494;50.868;4.180;2023-01-04T16:21:41;34.50;;;5.85;;
20669;SDS011;10494;50.868;4.180;2023-01-04T16:24:07;37.70;;;5.82;;
20669;SDS011;10494;50.868;4.180;2023-01-04T16:26:34;43.30;;;6.70;;
20669;SDS011;10494;50.868;4.180;2023-01-04T16:29:00;35.72;;;6.25;;
20669;SDS011;10494;50.868;4.180;2023-01-04T16:31:31;30.73;;;5.65;;
20669;SDS011;10494;50.868;4.180;2023-01-04T16:33:57;35.88;;;5.75;;
20669;SDS011;10494;50.868;4.180;2023-01-04T16:36:23;46.88;;;7.57;;
20669;SDS011;10494;50.868;4.180;2023-01-04T16:38:48;31.92;;;5.70;;
20669;SDS011;10494;50.868;4.180;2023-01-04T16:41:14;35.30;;;5.10;;
20669;SDS011;10494;50.868;4.180;2023-01-04T16:43:45;34.70;;;5.85;;
20669;SDS011;10494;50.868;4.180;2023-01-04T16:48:51;46.60;;;6.65;;
20669;SDS011;10494;50.868;4.180;2023-01-04T16:51:19;38.30;;;5.57;;